createdAt,value
2023-01-03T00:02:15.429Z,101771.84
2023-01-03T00:04:48.920Z,101766.69
2023-01-03T00:07:33.549Z,101770.06
2023-01-03T00:10:01.527Z,101765.84
2023-01-03T00:12:32.091Z,101760.34
2023-01-03T00:14:59.907Z,101763.88
2023-01-03T00:17:27.437Z,101771.38
2023-01-03T00:19:54.980Z,101772.81
2023-01-03T00:22:22.509Z,101782.16
2023-01-03T00:24:50.287Z,101768.47
2023-01-03T00:27:17.859Z,101779.66
2023-01-03T00:29:46.753Z,101776.88
2023-01-03T00:32:14.345Z,101782.69
2023-01-03T00:34:42.665Z,101775.66
2023-01-03T00:37:10.217Z,101776.00
2023-01-03T00:39:37.717Z,101787.25
2023-01-03T00:42:05.422Z,101801.47
2023-01-03T00:44:33.136Z,101795.47
2023-01-03T00:47:02.005Z,101805.59
2023-01-03T00:49:29.654Z,101812.94
2023-01-03T00:51:57.214Z,101804.75
2023-01-03T00:54:24.766Z,101805.25
2023-01-03T00:56:52.532Z,101813.31
2023-01-03T00:59:20.593Z,101809.22
2023-01-03T01:01:48.834Z,101807.03
2023-01-03T01:04:18.573Z,101814.06
2023-01-03T01:06:46.771Z,101797.56
2023-01-03T01:09:14.976Z,101812.00
2023-01-03T01:11:42.542Z,101803.72
2023-01-03T01:14:20.672Z,101815.13
2023-01-03T01:16:48.578Z,101819.44
2023-01-03T01:19:16.148Z,101802.50
2023-01-03T01:21:45.161Z,101827.94
2023-01-03T01:24:17.517Z,101808.34
2023-01-03T01:26:45.650Z,101818.06
2023-01-03T01:29:13.448Z,101821.59
2023-01-03T01:31:41.390Z,101808.13
2023-01-03T01:34:09.251Z,101824.53
2023-01-03T01:36:39.440Z,101826.84
2023-01-03T01:39:08.962Z,101823.56
2023-01-03T01:41:54.697Z,101836.97
2023-01-03T01:44:42.166Z,101833.31
2023-01-03T01:47:15.550Z,101841.50
2023-01-03T01:49:43.071Z,101846.03
2023-01-03T01:52:10.859Z,101852.09
2023-01-03T01:54:40.546Z,101834.06
2023-01-03T01:57:08.095Z,101841.81
2023-01-03T01:59:35.683Z,101850.84
2023-01-03T02:02:03.295Z,101849.81
2023-01-03T02:04:32.210Z,101834.97
2023-01-03T02:06:59.701Z,101835.53
2023-01-03T02:09:27.243Z,101841.50
2023-01-03T02:12:10.673Z,101841.38
2023-01-03T02:14:39.931Z,101839.88
2023-01-03T02:17:09.298Z,101837.03
2023-01-03T02:19:43.148Z,101842.81
2023-01-03T02:22:29.138Z,101838.75
2023-01-03T02:25:14.628Z,101847.25
2023-01-03T02:28:04.373Z,101845.94
2023-01-03T02:30:37.908Z,101842.31
2023-01-03T02:33:11.414Z,101853.25
2023-01-03T02:35:39.750Z,101850.00
2023-01-03T02:38:09.919Z,101865.53
2023-01-03T02:40:38.266Z,101860.72
2023-01-03T02:43:07.076Z,101871.47
2023-01-03T02:45:39.378Z,101861.41
2023-01-03T02:48:07.258Z,101867.09
2023-01-03T02:50:35.753Z,101879.00
2023-01-03T02:53:04.331Z,101877.34
2023-01-03T02:55:32.022Z,101869.00
2023-01-03T02:58:01.217Z,101872.38
2023-01-03T03:00:29.518Z,101853.81
2023-01-03T03:02:59.200Z,101868.22
2023-01-03T03:05:27.162Z,101858.41
2023-01-03T03:07:54.648Z,101866.88
2023-01-03T03:10:39.796Z,101861.84
2023-01-03T03:13:14.638Z,101853.09
2023-01-03T03:15:43.496Z,101856.94
2023-01-03T03:18:13.051Z,101861.97
2023-01-03T03:20:58.214Z,101863.66
2023-01-03T03:23:45.141Z,101870.53
2023-01-03T03:26:13.919Z,101866.97
2023-01-03T03:28:43.534Z,101873.88
2023-01-03T03:31:11.842Z,101872.22
2023-01-03T03:33:42.290Z,101877.50
2023-01-03T03:36:11.591Z,101869.75
2023-01-03T03:38:39.930Z,101868.94
2023-01-03T03:41:28.483Z,101872.50
2023-01-03T03:44:14.321Z,101870.19
2023-01-03T03:46:47.608Z,101867.97
2023-01-03T03:49:37.785Z,101873.13
2023-01-03T03:52:05.794Z,101869.19
2023-01-03T03:54:34.501Z,101866.72
2023-01-03T03:57:03.367Z,101875.47
2023-01-03T03:59:31.161Z,101878.13
2023-01-03T04:01:59.031Z,101877.34
2023-01-03T04:04:28.574Z,101881.16
2023-01-03T04:06:56.101Z,101885.09
2023-01-03T04:09:23.600Z,101889.28
2023-01-03T04:11:51.130Z,101893.34
2023-01-03T04:14:18.672Z,101900.94
2023-01-03T04:16:46.202Z,101895.69
2023-01-03T04:19:13.759Z,101902.81
2023-01-03T04:21:42.654Z,101899.75
2023-01-03T04:24:10.260Z,101903.63
2023-01-03T04:26:37.825Z,101893.56
2023-01-03T04:29:05.378Z,101896.25
2023-01-03T04:31:32.981Z,101894.91
2023-01-03T04:34:00.560Z,101893.09
2023-01-03T04:36:28.113Z,101895.88
2023-01-03T04:38:56.945Z,101902.94
2023-01-03T04:41:24.425Z,101903.94
2023-01-03T04:44:02.940Z,101901.09
2023-01-03T04:46:30.838Z,101906.72
2023-01-03T04:48:58.388Z,101915.75
2023-01-03T04:51:25.995Z,101903.56
2023-01-03T04:53:53.504Z,101901.66
2023-01-03T04:56:25.875Z,101905.47
2023-01-03T04:58:53.348Z,101911.56
2023-01-03T05:01:21.018Z,101901.72
2023-01-03T05:03:48.667Z,101911.56
2023-01-03T05:06:16.540Z,101909.81
2023-01-03T05:08:45.206Z,101914.22
2023-01-03T05:11:12.751Z,101922.78
2023-01-03T05:13:41.595Z,101901.16
2023-01-03T05:16:09.986Z,101924.88
2023-01-03T05:18:37.712Z,101917.63
2023-01-03T05:21:23.262Z,101903.91
2023-01-03T05:24:08.242Z,101921.88
2023-01-03T05:26:36.546Z,101919.28
2023-01-03T05:29:05.395Z,101932.91
2023-01-03T05:31:32.971Z,101916.63
2023-01-03T05:34:00.513Z,101918.16
2023-01-03T05:36:28.086Z,101925.47
2023-01-03T05:38:55.873Z,101923.63
2023-01-03T05:41:37.269Z,101921.38
2023-01-03T05:44:06.341Z,101925.16
2023-01-03T05:46:34.041Z,101914.88
2023-01-03T05:49:01.650Z,101921.91
2023-01-03T05:51:29.124Z,101915.00
2023-01-03T05:53:56.611Z,101930.75
2023-01-03T05:56:24.085Z,101936.75
2023-01-03T05:58:51.671Z,101927.22
2023-01-03T06:01:20.565Z,101927.88
2023-01-03T06:03:48.319Z,101943.94
2023-01-03T06:06:16.427Z,101943.75
2023-01-03T06:08:44.133Z,101932.19
2023-01-03T06:11:13.095Z,101939.84
2023-01-03T06:13:40.714Z,101946.38
2023-01-03T06:16:26.163Z,101925.44
2023-01-03T06:18:55.124Z,101950.97
2023-01-03T06:21:22.682Z,101943.56
2023-01-03T06:23:50.150Z,101956.88
2023-01-03T06:26:18.325Z,101935.91
2023-01-03T06:28:45.817Z,101953.25
2023-01-03T06:31:13.368Z,101944.19
2023-01-03T06:33:41.172Z,101955.22
2023-01-03T06:36:11.180Z,101937.63
2023-01-03T06:38:38.732Z,101950.66
2023-01-03T06:41:06.443Z,101956.88
2023-01-03T06:43:33.916Z,101956.88
2023-01-03T06:46:19.369Z,101963.63
2023-01-03T06:49:04.562Z,101950.78
2023-01-03T06:51:51.284Z,101964.25
2023-01-03T06:54:20.536Z,101959.84
2023-01-03T06:56:48.110Z,101965.03
2023-01-03T06:59:15.601Z,101967.88
2023-01-03T07:01:43.150Z,101952.41
2023-01-03T07:04:10.860Z,101954.47
2023-01-03T07:06:39.960Z,101950.91
2023-01-03T07:09:07.782Z,101947.16
2023-01-03T07:11:35.278Z,101961.13
2023-01-03T07:14:03.472Z,101962.25
2023-01-03T07:16:31.616Z,101960.28
2023-01-03T07:18:59.451Z,101942.22
2023-01-03T07:21:28.049Z,101955.38
2023-01-03T07:23:57.258Z,101959.72
2023-01-03T07:26:25.302Z,101961.28
2023-01-03T07:28:52.786Z,101968.03
2023-01-03T07:31:20.396Z,101965.91
2023-01-03T07:33:47.925Z,101962.38
2023-01-03T07:36:15.721Z,101965.19
2023-01-03T07:38:45.055Z,101962.69
2023-01-03T07:41:14.191Z,101969.88
2023-01-03T07:43:41.170Z,101969.41
2023-01-03T07:46:09.663Z,101975.59
2023-01-03T07:48:37.223Z,101960.00
2023-01-03T07:51:04.908Z,101972.28
2023-01-03T07:53:32.425Z,101971.06
2023-01-03T07:56:09.139Z,101964.59
2023-01-03T07:58:41.695Z,101961.94
2023-01-03T08:01:09.913Z,101957.00
2023-01-03T08:03:38.099Z,101962.78
2023-01-03T08:06:06.513Z,101962.13
2023-01-03T08:08:34.054Z,101955.03
2023-01-03T08:11:19.505Z,101970.44
2023-01-03T08:13:48.617Z,101954.66
2023-01-03T08:16:16.785Z,101966.28
2023-01-03T08:18:44.443Z,101968.22
2023-01-03T08:21:12.613Z,101968.56
2023-01-03T08:23:40.375Z,101968.56
2023-01-03T08:26:08.413Z,101969.16
2023-01-03T08:28:36.374Z,101966.13
2023-01-03T08:31:07.980Z,101966.69
2023-01-03T08:33:37.181Z,101978.28
2023-01-03T08:36:05.607Z,101988.34
2023-01-03T08:38:33.863Z,101964.28
2023-01-03T08:41:01.392Z,101957.84
2023-01-03T08:43:31.277Z,101968.75
2023-01-03T08:45:58.784Z,101966.41
2023-01-03T08:48:27.675Z,101960.19
2023-01-03T08:50:55.157Z,101969.22
2023-01-03T08:53:24.382Z,101969.88
2023-01-03T08:55:51.950Z,101976.31
2023-01-03T08:58:19.516Z,101989.31
2023-01-03T09:00:47.031Z,101969.03
2023-01-03T09:03:14.903Z,101972.16
2023-01-03T09:05:44.012Z,101968.97
2023-01-03T09:08:11.483Z,101970.84
2023-01-03T09:10:47.128Z,101980.13
2023-01-03T09:13:15.213Z,101981.84
2023-01-03T09:15:42.807Z,101981.53
2023-01-03T09:18:10.384Z,101979.50
2023-01-03T09:20:37.881Z,101975.13
2023-01-03T09:23:06.743Z,101974.78
2023-01-03T09:25:37.325Z,101978.44
2023-01-03T09:28:05.522Z,101982.22
2023-01-03T09:30:33.102Z,101979.34
2023-01-03T09:33:00.630Z,101965.63
2023-01-03T09:35:28.167Z,101971.56
2023-01-03T09:37:55.679Z,101979.31
2023-01-03T09:40:24.613Z,101970.84
2023-01-03T09:43:09.954Z,101975.38
2023-01-03T09:45:38.936Z,101960.78
2023-01-03T09:48:06.634Z,101978.66
2023-01-03T09:50:57.107Z,101960.88
2023-01-03T09:53:40.256Z,101977.53
2023-01-03T09:56:28.436Z,101977.50
2023-01-03T09:59:14.942Z,101969.66
2023-01-03T10:02:04.743Z,101983.41
2023-01-03T10:04:46.814Z,101977.72
2023-01-03T10:07:16.199Z,101982.66
2023-01-03T10:09:45.919Z,101988.31
2023-01-03T10:12:16.848Z,101979.53
2023-01-03T10:14:47.283Z,101987.50
2023-01-03T10:17:17.161Z,101972.38
2023-01-03T10:19:49.251Z,101973.09
2023-01-03T10:22:19.109Z,101985.03
2023-01-03T10:24:47.730Z,101973.16
2023-01-03T10:27:17.473Z,101977.94
2023-01-03T10:29:45.054Z,101975.03
2023-01-03T10:32:19.525Z,101956.25
2023-01-03T10:34:47.255Z,101968.03
2023-01-03T10:37:17.162Z,101968.31
2023-01-03T10:39:44.638Z,101950.88
2023-01-03T10:42:14.650Z,101955.50
2023-01-03T10:44:43.566Z,101937.66
2023-01-03T10:47:11.935Z,101952.44
2023-01-03T10:49:40.479Z,101953.88
2023-01-03T10:52:11.000Z,101958.34
2023-01-03T10:54:46.802Z,101946.66
2023-01-03T10:57:29.200Z,101943.34
2023-01-03T10:59:58.053Z,101931.22
2023-01-03T11:02:25.710Z,101933.31
2023-01-03T11:04:54.870Z,101918.97
2023-01-03T11:07:22.322Z,101907.50
2023-01-03T11:09:51.728Z,101891.41
2023-01-03T11:12:21.137Z,101896.78
2023-01-03T11:14:51.950Z,101907.78
2023-01-03T11:17:21.503Z,101902.06
2023-01-03T11:19:49.561Z,101890.25
2023-01-03T11:22:18.549Z,101903.72
2023-01-03T11:25:00.738Z,101897.00
2023-01-03T11:27:32.978Z,101896.91
2023-01-03T11:30:08.827Z,101897.91
2023-01-03T11:32:42.765Z,101903.19
2023-01-03T11:35:24.417Z,101880.28
2023-01-03T11:37:55.384Z,101910.09
2023-01-03T11:40:24.971Z,101905.13
2023-01-03T11:42:55.109Z,101913.00
2023-01-03T11:45:48.695Z,101912.09
2023-01-03T11:48:22.287Z,101904.16
2023-01-03T11:50:50.898Z,101912.81
2023-01-03T11:53:21.255Z,101911.84
2023-01-03T11:55:52.383Z,101887.63
2023-01-03T11:58:38.556Z,101911.50
2023-01-03T12:01:08.260Z,101899.13
2023-01-03T12:03:41.035Z,101891.56
2023-01-03T12:06:09.735Z,101895.56
2023-01-03T12:08:48.691Z,101893.19
2023-01-03T12:11:23.255Z,101888.72
2023-01-03T12:13:53.352Z,101881.59
2023-01-03T12:16:25.161Z,101872.06
2023-01-03T12:18:56.089Z,101875.25
2023-01-03T12:21:25.037Z,101888.22
2023-01-03T12:23:53.981Z,101890.22
2023-01-03T12:26:21.483Z,101879.91
2023-01-03T12:28:49.593Z,101874.28
2023-01-03T12:31:26.293Z,101872.75
2023-01-03T12:34:00.979Z,101865.81
2023-01-03T12:36:30.047Z,101868.34
2023-01-03T12:39:01.100Z,101870.34
2023-01-03T12:41:29.688Z,101848.03
2023-01-03T12:43:58.743Z,101851.06
2023-01-03T12:46:27.672Z,101842.19
2023-01-03T12:48:56.100Z,101855.28
2023-01-03T12:51:25.661Z,101852.03
2023-01-03T12:53:55.210Z,101851.53
2023-01-03T12:56:39.169Z,101868.81
2023-01-03T12:59:07.480Z,101852.59
2023-01-03T13:01:37.423Z,101846.50
2023-01-03T13:04:08.162Z,101859.97
2023-01-03T13:06:37.948Z,101847.69
2023-01-03T13:09:06.264Z,101851.56
2023-01-03T13:11:34.935Z,101861.28
2023-01-03T13:14:04.628Z,101841.25
2023-01-03T13:16:35.811Z,101848.09
2023-01-03T13:19:22.024Z,101847.25
2023-01-03T13:22:01.915Z,101828.28
2023-01-03T13:24:41.835Z,101835.31
2023-01-03T13:27:33.687Z,101820.72
2023-01-03T13:30:01.219Z,101823.25
2023-01-03T13:32:34.669Z,101838.59
2023-01-03T13:35:35.428Z,101835.63
2023-01-03T13:38:24.466Z,101835.16
2023-01-03T13:41:17.220Z,101832.91
2023-01-03T13:43:40.428Z,101835.59
2023-01-03T13:46:11.100Z,101824.56
2023-01-03T13:48:40.079Z,101830.38
2023-01-03T13:51:10.815Z,101823.31
2023-01-03T13:53:40.324Z,101822.56
2023-01-03T13:56:21.011Z,101831.88
2023-01-03T13:58:50.044Z,101816.97
2023-01-03T14:01:19.390Z,101817.72
2023-01-03T14:03:51.880Z,101813.66
2023-01-03T14:06:33.596Z,101829.56
2023-01-03T14:09:10.762Z,101826.88
2023-01-03T14:11:44.462Z,101823.69
2023-01-03T14:14:12.626Z,101823.28
2023-01-03T14:16:43.235Z,101832.66
2023-01-03T14:19:13.440Z,101830.63
2023-01-03T14:21:42.584Z,101832.03
2023-01-03T14:24:16.767Z,101833.53
2023-01-03T14:26:44.259Z,101838.28
2023-01-03T14:29:12.811Z,101844.16
2023-01-03T14:31:40.301Z,101830.22
2023-01-03T14:34:11.500Z,101819.63
2023-01-03T14:36:45.313Z,101827.28
2023-01-03T14:39:13.882Z,101841.63
2023-01-03T14:41:43.269Z,101803.53
2023-01-03T14:44:15.195Z,101821.06
2023-01-03T14:46:50.320Z,101833.22
2023-01-03T14:49:19.533Z,101829.34
2023-01-03T14:51:47.030Z,101837.28
2023-01-03T14:54:16.087Z,101822.97
2023-01-03T14:56:46.687Z,101813.31
2023-01-03T14:59:14.406Z,101814.88
2023-01-03T15:01:43.047Z,101824.41
2023-01-03T15:04:10.958Z,101823.13
2023-01-03T15:06:38.512Z,101832.56
2023-01-03T15:09:14.126Z,101829.66
2023-01-03T15:14:38.997Z,101824.66
2023-01-03T15:17:08.023Z,101841.50
2023-01-03T15:19:35.702Z,101832.22
2023-01-03T15:22:14.477Z,101807.81
2023-01-03T15:24:43.597Z,101821.91
2023-01-03T15:27:29.569Z,101822.59
2023-01-03T15:29:58.449Z,101815.59
2023-01-03T15:32:26.013Z,101808.66
2023-01-03T15:34:53.470Z,101808.44
2023-01-03T15:37:23.997Z,101803.31
2023-01-03T15:39:52.204Z,101808.38
2023-01-03T15:42:47.844Z,101813.44
2023-01-03T15:45:20.680Z,101814.78
2023-01-03T15:47:48.917Z,101816.75
2023-01-03T15:50:18.814Z,101814.34
2023-01-03T15:52:46.449Z,101810.63
2023-01-03T15:55:14.487Z,101803.97
2023-01-03T15:57:42.092Z,101807.59
2023-01-03T16:00:11.684Z,101804.63
2023-01-03T16:02:40.720Z,101806.13
2023-01-03T16:05:10.483Z,101798.94
2023-01-03T16:07:39.977Z,101779.66
2023-01-03T16:10:08.042Z,101772.22
2023-01-03T16:12:36.190Z,101769.50
2023-01-03T16:15:03.695Z,101768.75
2023-01-03T16:17:31.442Z,101768.19
2023-01-03T16:20:00.344Z,101771.00
2023-01-03T16:22:36.461Z,101780.13
2023-01-03T16:25:04.898Z,101771.13
2023-01-03T16:27:32.498Z,101770.69
2023-01-03T16:30:00.049Z,101768.72
2023-01-03T16:32:28.315Z,101772.47
2023-01-03T16:34:55.924Z,101764.66
2023-01-03T16:37:24.822Z,101762.41
2023-01-03T16:39:52.356Z,101769.19
2023-01-03T16:42:27.380Z,101768.88
2023-01-03T16:44:55.405Z,101757.22
2023-01-03T16:47:23.877Z,101741.97
2023-01-03T16:49:51.862Z,101750.81
2023-01-03T16:52:20.241Z,101757.53
2023-01-03T16:54:50.111Z,101759.75
2023-01-03T16:57:18.201Z,101766.69
2023-01-03T16:59:45.812Z,101751.94
2023-01-03T17:02:14.110Z,101759.56
2023-01-03T17:04:41.786Z,101753.91
2023-01-03T17:07:10.874Z,101743.63
2023-01-03T17:09:40.295Z,101751.13
2023-01-03T17:12:09.863Z,101731.03
2023-01-03T17:14:37.419Z,101723.41
2023-01-03T17:17:05.017Z,101759.41
2023-01-03T17:22:22.722Z,101743.00
2023-01-03T17:24:50.242Z,101735.47
2023-01-03T17:27:19.826Z,101732.28
2023-01-03T17:29:47.402Z,101722.69
2023-01-03T17:32:16.478Z,101730.31
2023-01-03T17:34:44.039Z,101718.53
2023-01-03T17:37:13.491Z,101734.38
2023-01-03T17:39:40.973Z,101725.84
2023-01-03T17:42:16.085Z,101727.41
2023-01-03T17:45:05.641Z,101710.69
2023-01-03T17:47:50.676Z,101710.91
2023-01-03T17:50:18.255Z,101698.91
2023-01-03T17:52:48.996Z,101707.31
2023-01-03T17:55:21.578Z,101709.50
2023-01-03T17:57:49.057Z,101696.13
2023-01-03T18:00:19.040Z,101702.50
2023-01-03T18:02:46.788Z,101699.22
2023-01-03T18:05:21.017Z,101693.13
2023-01-03T18:07:52.483Z,101703.53
2023-01-03T18:10:20.560Z,101703.13
2023-01-03T18:12:48.031Z,101705.66
2023-01-03T18:15:16.663Z,101708.25
2023-01-03T18:17:45.790Z,101696.50
2023-01-03T18:20:13.659Z,101698.38
2023-01-03T18:22:41.139Z,101684.16
2023-01-03T18:25:13.263Z,101686.44
2023-01-03T18:27:44.337Z,101686.03
2023-01-03T18:30:14.694Z,101677.00
2023-01-03T18:32:42.177Z,101673.06
2023-01-03T18:35:14.195Z,101670.44
2023-01-03T18:37:41.718Z,101668.34
2023-01-03T18:40:09.799Z,101662.34
2023-01-03T18:42:54.917Z,101646.63
2023-01-03T18:45:22.598Z,101652.03
2023-01-03T18:47:50.084Z,101635.16
2023-01-03T18:50:19.885Z,101645.50
2023-01-03T18:52:47.617Z,101629.59
2023-01-03T18:55:16.971Z,101636.25
2023-01-03T18:57:44.605Z,101641.38
2023-01-03T19:00:18.638Z,101650.69
2023-01-03T19:02:46.440Z,101621.28
2023-01-03T19:05:14.142Z,101622.38
2023-01-03T19:07:43.039Z,101620.69
2023-01-03T19:10:15.490Z,101623.91
2023-01-03T19:12:43.027Z,101606.75
2023-01-03T19:15:15.770Z,101609.59
2023-01-03T19:17:43.385Z,101598.69
2023-01-03T19:20:11.284Z,101603.13
2023-01-03T19:22:40.524Z,101588.19
2023-01-03T19:25:12.453Z,101589.34
2023-01-03T19:27:40.725Z,101600.56
2023-01-03T19:30:11.803Z,101602.63
2023-01-03T19:32:39.346Z,101594.56
2023-01-03T19:35:10.476Z,101593.97
2023-01-03T19:37:37.977Z,101589.97
2023-01-03T19:40:05.974Z,101580.97
2023-01-03T19:42:50.495Z,101588.88
2023-01-03T19:45:21.083Z,101584.53
2023-01-03T19:47:48.542Z,101568.72
2023-01-03T19:50:18.073Z,101579.38
2023-01-03T19:52:46.422Z,101586.53
2023-01-03T19:55:13.951Z,101558.97
2023-01-03T19:57:43.787Z,101565.03
2023-01-03T20:00:16.169Z,101567.56
2023-01-03T20:02:43.798Z,101576.75
2023-01-03T20:05:15.090Z,101568.28
2023-01-03T20:07:42.652Z,101557.75
2023-01-03T20:10:11.060Z,101560.94
2023-01-03T20:12:38.575Z,101560.72
2023-01-03T20:15:10.352Z,101562.66
2023-01-03T20:17:37.875Z,101538.78
2023-01-03T20:20:06.082Z,101560.84
2023-01-03T20:25:25.161Z,101533.09
2023-01-03T20:27:52.697Z,101513.28
2023-01-03T20:30:22.221Z,101515.53
2023-01-03T20:32:49.756Z,101518.38
2023-01-03T20:38:05.242Z,101501.81
2023-01-03T20:40:32.713Z,101504.53
2023-01-03T20:43:02.328Z,101508.44
2023-01-03T20:45:31.641Z,101489.66
2023-01-03T20:47:59.161Z,101487.16
2023-01-03T20:50:27.538Z,101500.25
2023-01-03T20:52:55.133Z,101492.06
2023-01-03T20:55:23.896Z,101493.09
2023-01-03T20:57:51.520Z,101483.81
2023-01-03T21:00:21.107Z,101477.09
2023-01-03T21:02:50.605Z,101492.41
2023-01-03T21:05:18.507Z,101495.19
2023-01-03T21:08:04.285Z,101487.34
2023-01-03T21:10:32.429Z,101491.88
2023-01-03T21:12:59.886Z,101471.13
2023-01-03T21:15:27.453Z,101463.56
2023-01-03T21:17:56.337Z,101456.59
2023-01-03T21:20:24.312Z,101464.13
2023-01-03T21:22:51.923Z,101467.63
2023-01-03T21:25:20.605Z,101456.28
2023-01-03T21:27:48.132Z,101449.44
2023-01-03T21:30:15.764Z,101434.50
2023-01-03T21:32:43.315Z,101434.13
2023-01-03T21:35:14.959Z,101443.25
2023-01-03T21:37:42.691Z,101408.19
2023-01-03T21:40:13.138Z,101426.44
2023-01-03T21:43:03.273Z,101422.53
2023-01-03T21:45:32.832Z,101426.22
2023-01-03T21:48:00.512Z,101408.19
2023-01-03T21:50:29.368Z,101400.22
2023-01-03T21:52:56.890Z,101394.34
2023-01-03T21:55:24.426Z,101393.72
2023-01-03T21:57:51.961Z,101384.09
2023-01-03T22:00:19.651Z,101381.66
2023-01-03T22:03:04.564Z,101392.88
2023-01-03T22:05:33.540Z,101379.41
2023-01-03T22:08:01.200Z,101384.56
2023-01-03T22:10:28.780Z,101358.78
2023-01-03T22:12:57.526Z,101371.75
2023-01-03T22:15:25.523Z,101370.50
2023-01-03T22:17:53.472Z,101374.47
2023-01-03T22:20:22.704Z,101367.97
2023-01-03T22:22:51.694Z,101358.69
2023-01-03T22:25:19.692Z,101361.06
2023-01-03T22:27:47.249Z,101365.94
2023-01-03T22:30:15.353Z,101348.44
2023-01-03T22:32:43.040Z,101357.94
2023-01-03T22:35:11.239Z,101341.72
2023-01-03T22:37:38.859Z,101337.88
2023-01-03T22:40:08.844Z,101333.59
2023-01-03T22:42:36.369Z,101332.31
2023-01-03T22:45:03.963Z,101343.44
2023-01-03T22:47:31.414Z,101322.56
2023-01-03T22:49:58.893Z,101316.38
2023-01-03T22:52:26.408Z,101326.41
2023-01-03T22:54:53.959Z,101313.63
2023-01-03T22:57:22.827Z,101306.91
2023-01-03T22:59:50.365Z,101319.94
2023-01-03T23:02:17.930Z,101300.09
2023-01-03T23:04:45.585Z,101296.97
2023-01-03T23:07:13.138Z,101288.72
2023-01-03T23:09:40.675Z,101277.09
2023-01-03T23:12:25.508Z,101274.88
2023-01-03T23:14:54.320Z,101289.34
2023-01-03T23:17:39.431Z,101270.84
2023-01-03T23:20:07.495Z,101249.50
2023-01-03T23:22:34.906Z,101265.09
2023-01-03T23:25:02.488Z,101254.19
2023-01-03T23:27:29.966Z,101261.44
2023-01-03T23:29:58.871Z,101250.84
2023-01-03T23:32:26.424Z,101244.34
2023-01-03T23:34:53.949Z,101219.31
2023-01-03T23:37:21.487Z,101225.03
2023-01-03T23:39:49.088Z,101228.53
2023-01-03T23:42:16.670Z,101233.34
2023-01-03T23:44:44.127Z,101225.31
2023-01-03T23:47:13.086Z,101227.69
2023-01-03T23:49:40.727Z,101199.34
2023-01-03T23:52:08.306Z,101201.19
2023-01-03T23:54:35.962Z,101160.81
2023-01-03T23:57:04.882Z,101147.91
2023-01-03T23:59:32.374Z,101174.72
